sensor_id;sensor_type;location;lat;lon;timestamp;P1;durP1;ratioP1;P2;durP2;ratioP2
75639;SDS011;64233;51.486;6.332;2023-02-14T00:00:11;10.02;;;6.78;;
75639;SDS011;64233;51.486;6.332;2023-02-14T00:02:36;10.88;;;5.57;;
75639;SDS011;64233;51.486;6.332;2023-02-14T00:05:01;7.30;;;5.22;;
75639;SDS011;64233;51.486;6.332;2023-02-14T00:07:27;9.48;;;5.93;;
75639;SDS011;64233;51.486;6.332;2023-02-14T00:09:52;10.65;;;5.45;;
75639;SDS011;64233;51.486;6.332;2023-02-14T00:12:17;13.40;;;6.43;;
75639;SDS011;64233;51.486;6.332;2023-02-14T00:14:42;13.48;;;6.68;;
75639;SDS011;64233;51.486;6.332;2023-02-14T00:17:26;7.90;;;5.40;;
75639;SDS011;64233;51.486;6.332;2023-02-14T00:20:02;10.67;;;6.93;;
75639;SDS011;64233;51.486;6.332;2023-02-14T00:22:27;12.32;;;6.25;;
75639;SDS011;64233;51.486;6.332;2023-02-14T00:24:52;9.77;;;5.70;;
75639;SDS011;64233;51.486;6.332;2023-02-14T00:27:18;9.88;;;4.95;;
75639;SDS011;64233;51.486;6.332;2023-02-14T00:29:43;9.73;;;5.97;;
75639;SDS011;64233;51.486;6.332;2023-02-14T00:32:08;12.18;;;6.20;;
75639;SDS011;64233;51.486;6.332;2023-02-14T00:34:33;12.43;;;6.47;;
75639;SDS011;64233;51.486;6.332;2023-02-14T00:37:00;14.32;;;6.72;;
75639;SDS011;64233;51.486;6.332;2023-02-14T00:39:26;12.23;;;7.07;;
75639;SDS011;64233;51.486;6.332;2023-02-14T00:41:51;8.55;;;6.07;;
75639;SDS011;64233;51.486;6.332;2023-02-14T00:44:16;9.48;;;6.40;;
75639;SDS011;64233;51.486;6.332;2023-02-14T00:46:43;11.60;;;6.78;;
75639;SDS011;64233;51.486;6.332;2023-02-14T00:49:08;14.95;;;7.57;;
75639;SDS011;64233;51.486;6.332;2023-02-14T00:51:34;12.98;;;7.38;;
75639;SDS011;64233;51.486;6.332;2023-02-14T00:53:59;13.63;;;7.95;;
75639;SDS011;64233;51.486;6.332;2023-02-14T00:56:24;10.88;;;6.55;;
75639;SDS011;64233;51.486;6.332;2023-02-14T00:58:50;11.00;;;6.78;;
75639;SDS011;64233;51.486;6.332;2023-02-14T01:01:15;13.60;;;6.63;;
75639;SDS011;64233;51.486;6.332;2023-02-14T01:03:41;13.85;;;7.68;;
75639;SDS011;64233;51.486;6.332;2023-02-14T01:06:06;11.48;;;6.45;;
75639;SDS011;64233;51.486;6.332;2023-02-14T01:08:33;16.30;;;8.45;;
75639;SDS011;64233;51.486;6.332;2023-02-14T01:11:12;12.13;;;7.10;;
75639;SDS011;64233;51.486;6.332;2023-02-14T01:13:40;12.32;;;7.50;;
75639;SDS011;64233;51.486;6.332;2023-02-14T01:16:07;9.27;;;6.22;;
75639;SDS011;64233;51.486;6.332;2023-02-14T01:18:34;10.63;;;6.68;;
75639;SDS011;64233;51.486;6.332;2023-02-14T01:23:44;12.07;;;6.15;;
75639;SDS011;64233;51.486;6.332;2023-02-14T01:26:11;10.75;;;6.80;;
75639;SDS011;64233;51.486;6.332;2023-02-14T01:28:36;13.75;;;7.72;;
75639;SDS011;64233;51.486;6.332;2023-02-14T01:31:06;10.73;;;6.35;;
75639;SDS011;64233;51.486;6.332;2023-02-14T01:33:37;10.88;;;6.65;;
75639;SDS011;64233;51.486;6.332;2023-02-14T01:36:03;11.30;;;6.13;;
75639;SDS011;64233;51.486;6.332;2023-02-14T01:38:28;14.55;;;6.38;;
75639;SDS011;64233;51.486;6.332;2023-02-14T01:40:53;10.50;;;5.57;;
75639;SDS011;64233;51.486;6.332;2023-02-14T01:43:19;13.68;;;7.40;;
75639;SDS011;64233;51.486;6.332;2023-02-14T01:45:44;12.20;;;6.85;;
75639;SDS011;64233;51.486;6.332;2023-02-14T01:48:09;10.70;;;7.05;;
75639;SDS011;64233;51.486;6.332;2023-02-14T01:50:39;12.05;;;6.75;;
75639;SDS011;64233;51.486;6.332;2023-02-14T01:53:09;11.57;;;6.75;;
75639;SDS011;64233;51.486;6.332;2023-02-14T01:55:38;11.20;;;5.75;;
75639;SDS011;64233;51.486;6.332;2023-02-14T01:58:09;12.00;;;7.85;;
75639;SDS011;64233;51.486;6.332;2023-02-14T02:00:37;14.75;;;7.40;;
75639;SDS011;64233;51.486;6.332;2023-02-14T02:03:35;12.55;;;5.95;;
75639;SDS011;64233;51.486;6.332;2023-02-14T02:06:10;14.77;;;7.88;;
75639;SDS011;64233;51.486;6.332;2023-02-14T02:08:47;11.00;;;6.82;;
75639;SDS011;64233;51.486;6.332;2023-02-14T02:11:18;11.10;;;6.78;;
75639;SDS011;64233;51.486;6.332;2023-02-14T02:13:43;13.25;;;6.95;;
75639;SDS011;64233;51.486;6.332;2023-02-14T02:16:45;9.93;;;6.47;;
75639;SDS011;64233;51.486;6.332;2023-02-14T02:30:18;13.60;;;6.78;;
75639;SDS011;64233;51.486;6.332;2023-02-14T02:35:57;12.52;;;7.53;;
75639;SDS011;64233;51.486;6.332;2023-02-14T02:41:16;15.88;;;7.93;;
75639;SDS011;64233;51.486;6.332;2023-02-14T02:52:55;11.93;;;6.28;;
75639;SDS011;64233;51.486;6.332;2023-02-14T02:55:36;11.73;;;6.45;;
75639;SDS011;64233;51.486;6.332;2023-02-14T02:58:23;12.55;;;6.30;;
75639;SDS011;64233;51.486;6.332;2023-02-14T03:00:55;14.27;;;7.25;;
75639;SDS011;64233;51.486;6.332;2023-02-14T03:03:23;9.88;;;5.55;;
75639;SDS011;64233;51.486;6.332;2023-02-14T03:06:10;11.57;;;6.47;;
75639;SDS011;64233;51.486;6.332;2023-02-14T03:08:36;8.38;;;5.88;;
75639;SDS011;64233;51.486;6.332;2023-02-14T03:11:01;11.95;;;5.90;;
75639;SDS011;64233;51.486;6.332;2023-02-14T03:13:31;10.13;;;5.93;;
75639;SDS011;64233;51.486;6.332;2023-02-14T03:16:19;14.38;;;6.63;;
75639;SDS011;64233;51.486;6.332;2023-02-14T03:24:42;10.75;;;6.25;;
75639;SDS011;64233;51.486;6.332;2023-02-14T03:27:26;14.38;;;6.32;;
75639;SDS011;64233;51.486;6.332;2023-02-14T03:29:57;14.27;;;6.22;;
75639;SDS011;64233;51.486;6.332;2023-02-14T03:40:41;9.98;;;5.85;;
75639;SDS011;64233;51.486;6.332;2023-02-14T03:43:11;11.80;;;6.07;;
75639;SDS011;64233;51.486;6.332;2023-02-14T03:45:45;9.88;;;6.75;;
75639;SDS011;64233;51.486;6.332;2023-02-14T03:50:44;10.52;;;5.75;;
75639;SDS011;64233;51.486;6.332;2023-02-14T03:53:11;11.18;;;6.93;;
75639;SDS011;64233;51.486;6.332;2023-02-14T03:55:54;12.27;;;6.90;;
75639;SDS011;64233;51.486;6.332;2023-02-14T03:58:30;16.13;;;7.33;;
75639;SDS011;64233;51.486;6.332;2023-02-14T04:01:02;17.30;;;7.43;;
75639;SDS011;64233;51.486;6.332;2023-02-14T04:03:32;16.40;;;7.57;;
75639;SDS011;64233;51.486;6.332;2023-02-14T04:06:02;11.38;;;5.93;;
75639;SDS011;64233;51.486;6.332;2023-02-14T04:08:28;10.55;;;6.80;;
75639;SDS011;64233;51.486;6.332;2023-02-14T04:10:55;11.70;;;6.60;;
75639;SDS011;64233;51.486;6.332;2023-02-14T04:13:23;12.68;;;6.65;;
75639;SDS011;64233;51.486;6.332;2023-02-14T04:15:48;13.02;;;6.18;;
75639;SDS011;64233;51.486;6.332;2023-02-14T04:18:13;9.95;;;6.38;;
75639;SDS011;64233;51.486;6.332;2023-02-14T04:20:57;9.75;;;6.20;;
75639;SDS011;64233;51.486;6.332;2023-02-14T04:23:22;13.68;;;6.82;;
75639;SDS011;64233;51.486;6.332;2023-02-14T04:25:48;11.02;;;5.45;;
75639;SDS011;64233;51.486;6.332;2023-02-14T04:28:13;9.32;;;6.18;;
75639;SDS011;64233;51.486;6.332;2023-02-14T04:30:38;8.85;;;6.18;;
75639;SDS011;64233;51.486;6.332;2023-02-14T04:33:04;12.50;;;5.93;;
75639;SDS011;64233;51.486;6.332;2023-02-14T04:35:29;10.40;;;6.28;;
75639;SDS011;64233;51.486;6.332;2023-02-14T04:37:55;11.15;;;5.95;;
75639;SDS011;64233;51.486;6.332;2023-02-14T04:40:20;13.38;;;6.15;;
75639;SDS011;64233;51.486;6.332;2023-02-14T04:42:46;11.73;;;6.50;;
75639;SDS011;64233;51.486;6.332;2023-02-14T04:45:11;11.65;;;6.07;;
75639;SDS011;64233;51.486;6.332;2023-02-14T04:47:37;9.70;;;5.97;;
75639;SDS011;64233;51.486;6.332;2023-02-14T04:50:09;14.65;;;6.15;;
75639;SDS011;64233;51.486;6.332;2023-02-14T04:52:41;10.38;;;6.40;;
75639;SDS011;64233;51.486;6.332;2023-02-14T04:55:07;11.82;;;7.28;;
75639;SDS011;64233;51.486;6.332;2023-02-14T04:57:33;8.48;;;5.63;;
75639;SDS011;64233;51.486;6.332;2023-02-14T04:59:58;12.95;;;6.78;;
75639;SDS011;64233;51.486;6.332;2023-02-14T05:02:24;12.45;;;6.53;;
75639;SDS011;64233;51.486;6.332;2023-02-14T05:04:49;11.27;;;6.70;;
75639;SDS011;64233;51.486;6.332;2023-02-14T05:07:14;11.48;;;6.70;;
75639;SDS011;64233;51.486;6.332;2023-02-14T05:09:40;11.07;;;7.03;;
75639;SDS011;64233;51.486;6.332;2023-02-14T05:12:05;10.25;;;6.03;;
75639;SDS011;64233;51.486;6.332;2023-02-14T05:14:30;10.40;;;6.57;;
75639;SDS011;64233;51.486;6.332;2023-02-14T05:16:56;13.57;;;7.68;;
75639;SDS011;64233;51.486;6.332;2023-02-14T05:19:21;13.98;;;7.10;;
75639;SDS011;64233;51.486;6.332;2023-02-14T05:21:46;10.52;;;6.70;;
75639;SDS011;64233;51.486;6.332;2023-02-14T05:24:12;15.13;;;5.88;;
75639;SDS011;64233;51.486;6.332;2023-02-14T05:26:37;11.18;;;6.20;;
75639;SDS011;64233;51.486;6.332;2023-02-14T05:29:02;12.82;;;7.07;;
75639;SDS011;64233;51.486;6.332;2023-02-14T05:31:28;12.30;;;6.60;;
75639;SDS011;64233;51.486;6.332;2023-02-14T05:33:53;10.70;;;7.13;;
75639;SDS011;64233;51.486;6.332;2023-02-14T05:36:18;12.20;;;6.38;;
75639;SDS011;64233;51.486;6.332;2023-02-14T05:38:44;12.02;;;6.00;;
75639;SDS011;64233;51.486;6.332;2023-02-14T05:41:09;10.75;;;6.45;;
75639;SDS011;64233;51.486;6.332;2023-02-14T05:43:34;13.45;;;7.20;;
75639;SDS011;64233;51.486;6.332;2023-02-14T05:46:00;10.63;;;6.07;;
75639;SDS011;64233;51.486;6.332;2023-02-14T05:48:25;13.45;;;7.93;;
75639;SDS011;64233;51.486;6.332;2023-02-14T05:50:50;10.00;;;6.47;;
75639;SDS011;64233;51.486;6.332;2023-02-14T05:53:16;13.63;;;8.43;;
75639;SDS011;64233;51.486;6.332;2023-02-14T05:55:41;14.63;;;8.07;;
75639;SDS011;64233;51.486;6.332;2023-02-14T05:58:06;14.82;;;6.90;;
75639;SDS011;64233;51.486;6.332;2023-02-14T06:00:32;13.95;;;8.48;;
75639;SDS011;64233;51.486;6.332;2023-02-14T06:02:58;13.18;;;6.97;;
75639;SDS011;64233;51.486;6.332;2023-02-14T06:05:24;9.75;;;6.72;;
75639;SDS011;64233;51.486;6.332;2023-02-14T06:07:49;9.38;;;6.03;;
75639;SDS011;64233;51.486;6.332;2023-02-14T06:10:16;12.60;;;7.15;;
75639;SDS011;64233;51.486;6.332;2023-02-14T06:12:42;14.88;;;8.43;;
75639;SDS011;64233;51.486;6.332;2023-02-14T06:15:07;14.65;;;8.93;;
75639;SDS011;64233;51.486;6.332;2023-02-14T06:17:33;16.40;;;7.93;;
75639;SDS011;64233;51.486;6.332;2023-02-14T06:19:58;17.50;;;8.65;;
75639;SDS011;64233;51.486;6.332;2023-02-14T06:22:23;17.75;;;8.80;;
75639;SDS011;64233;51.486;6.332;2023-02-14T06:24:48;15.90;;;8.50;;
75639;SDS011;64233;51.486;6.332;2023-02-14T06:27:14;17.55;;;8.35;;
75639;SDS011;64233;51.486;6.332;2023-02-14T06:29:39;13.02;;;7.82;;
75639;SDS011;64233;51.486;6.332;2023-02-14T06:32:04;15.30;;;7.65;;
75639;SDS011;64233;51.486;6.332;2023-02-14T06:34:31;12.98;;;6.82;;
75639;SDS011;64233;51.486;6.332;2023-02-14T06:36:57;15.05;;;6.72;;
75639;SDS011;64233;51.486;6.332;2023-02-14T06:39:22;13.48;;;7.70;;
75639;SDS011;64233;51.486;6.332;2023-02-14T06:41:48;13.55;;;7.18;;
75639;SDS011;64233;51.486;6.332;2023-02-14T06:44:13;12.82;;;7.25;;
75639;SDS011;64233;51.486;6.332;2023-02-14T06:46:38;14.68;;;7.88;;
75639;SDS011;64233;51.486;6.332;2023-02-14T06:49:03;11.88;;;6.57;;
75639;SDS011;64233;51.486;6.332;2023-02-14T06:51:29;11.43;;;6.47;;
75639;SDS011;64233;51.486;6.332;2023-02-14T06:53:54;16.23;;;6.75;;
75639;SDS011;64233;51.486;6.332;2023-02-14T06:56:19;19.20;;;8.00;;
75639;SDS011;64233;51.486;6.332;2023-02-14T06:58:45;14.50;;;8.05;;
75639;SDS011;64233;51.486;6.332;2023-02-14T07:01:10;16.15;;;7.43;;
75639;SDS011;64233;51.486;6.332;2023-02-14T07:03:35;13.30;;;7.43;;
75639;SDS011;64233;51.486;6.332;2023-02-14T07:06:01;12.75;;;7.47;;
75639;SDS011;64233;51.486;6.332;2023-02-14T07:08:26;13.20;;;7.25;;
75639;SDS011;64233;51.486;6.332;2023-02-14T07:10:54;15.27;;;7.35;;
75639;SDS011;64233;51.486;6.332;2023-02-14T07:13:21;14.45;;;7.30;;
75639;SDS011;64233;51.486;6.332;2023-02-14T07:15:46;14.85;;;7.90;;
75639;SDS011;64233;51.486;6.332;2023-02-14T07:18:11;15.45;;;7.85;;
75639;SDS011;64233;51.486;6.332;2023-02-14T07:20:37;14.48;;;7.18;;
75639;SDS011;64233;51.486;6.332;2023-02-14T07:23:02;15.80;;;7.80;;
75639;SDS011;64233;51.486;6.332;2023-02-14T07:25:27;16.13;;;8.30;;
75639;SDS011;64233;51.486;6.332;2023-02-14T07:27:52;15.48;;;7.38;;
75639;SDS011;64233;51.486;6.332;2023-02-14T07:30:18;18.67;;;6.97;;
75639;SDS011;64233;51.486;6.332;2023-02-14T07:32:43;16.45;;;8.90;;
75639;SDS011;64233;51.486;6.332;2023-02-14T07:35:09;17.30;;;8.35;;
75639;SDS011;64233;51.486;6.332;2023-02-14T07:37:35;17.08;;;8.80;;
75639;SDS011;64233;51.486;6.332;2023-02-14T07:40:00;16.60;;;8.48;;
75639;SDS011;64233;51.486;6.332;2023-02-14T07:42:26;21.70;;;8.77;;
75639;SDS011;64233;51.486;6.332;2023-02-14T07:44:51;23.30;;;9.43;;
75639;SDS011;64233;51.486;6.332;2023-02-14T07:47:16;20.15;;;9.32;;
75639;SDS011;64233;51.486;6.332;2023-02-14T07:49:42;14.00;;;7.78;;
75639;SDS011;64233;51.486;6.332;2023-02-14T07:52:07;18.73;;;10.35;;
75639;SDS011;64233;51.486;6.332;2023-02-14T07:54:32;18.60;;;10.65;;
75639;SDS011;64233;51.486;6.332;2023-02-14T07:56:58;16.08;;;7.93;;
75639;SDS011;64233;51.486;6.332;2023-02-14T07:59:23;20.13;;;9.98;;
75639;SDS011;64233;51.486;6.332;2023-02-14T08:01:49;18.83;;;11.32;;
75639;SDS011;64233;51.486;6.332;2023-02-14T08:04:14;17.08;;;9.73;;
75639;SDS011;64233;51.486;6.332;2023-02-14T08:06:40;25.70;;;11.07;;
75639;SDS011;64233;51.486;6.332;2023-02-14T08:09:06;20.42;;;11.25;;
75639;SDS011;64233;51.486;6.332;2023-02-14T08:11:32;16.83;;;10.35;;
75639;SDS011;64233;51.486;6.332;2023-02-14T08:14:16;19.88;;;9.68;;
75639;SDS011;64233;51.486;6.332;2023-02-14T08:16:41;21.02;;;11.35;;
75639;SDS011;64233;51.486;6.332;2023-02-14T08:19:06;17.02;;;9.05;;
75639;SDS011;64233;51.486;6.332;2023-02-14T08:21:32;20.10;;;10.18;;
75639;SDS011;64233;51.486;6.332;2023-02-14T08:23:57;20.73;;;10.45;;
75639;SDS011;64233;51.486;6.332;2023-02-14T08:26:22;21.17;;;9.82;;
75639;SDS011;64233;51.486;6.332;2023-02-14T08:28:48;22.60;;;9.60;;
75639;SDS011;64233;51.486;6.332;2023-02-14T08:31:20;19.95;;;11.15;;
75639;SDS011;64233;51.486;6.332;2023-02-14T08:33:49;16.98;;;10.07;;
75639;SDS011;64233;51.486;6.332;2023-02-14T08:36:15;21.80;;;10.48;;
75639;SDS011;64233;51.486;6.332;2023-02-14T08:38:41;16.90;;;8.90;;
75639;SDS011;64233;51.486;6.332;2023-02-14T08:41:09;14.10;;;7.70;;
75639;SDS011;64233;51.486;6.332;2023-02-14T08:43:34;17.85;;;10.23;;
75639;SDS011;64233;51.486;6.332;2023-02-14T08:45:59;19.52;;;10.18;;
75639;SDS011;64233;51.486;6.332;2023-02-14T08:48:25;25.13;;;9.23;;
75639;SDS011;64233;51.486;6.332;2023-02-14T08:50:50;18.27;;;9.85;;
75639;SDS011;64233;51.486;6.332;2023-02-14T08:53:16;17.70;;;9.85;;
75639;SDS011;64233;51.486;6.332;2023-02-14T08:55:41;19.17;;;11.27;;
75639;SDS011;64233;51.486;6.332;2023-02-14T08:58:06;22.13;;;10.30;;
75639;SDS011;64233;51.486;6.332;2023-02-14T09:00:32;20.88;;;9.80;;
75639;SDS011;64233;51.486;6.332;2023-02-14T09:02:58;24.02;;;11.00;;
75639;SDS011;64233;51.486;6.332;2023-02-14T09:05:24;23.40;;;10.90;;
75639;SDS011;64233;51.486;6.332;2023-02-14T09:07:50;19.40;;;11.43;;
75639;SDS011;64233;51.486;6.332;2023-02-14T09:10:15;24.42;;;11.82;;
75639;SDS011;64233;51.486;6.332;2023-02-14T09:12:42;23.58;;;11.35;;
75639;SDS011;64233;51.486;6.332;2023-02-14T09:15:08;21.27;;;11.38;;
75639;SDS011;64233;51.486;6.332;2023-02-14T09:17:35;25.50;;;12.05;;
75639;SDS011;64233;51.486;6.332;2023-02-14T09:20:01;21.15;;;11.02;;
75639;SDS011;64233;51.486;6.332;2023-02-14T09:22:26;21.02;;;10.93;;
75639;SDS011;64233;51.486;6.332;2023-02-14T09:24:52;19.45;;;11.18;;
75639;SDS011;64233;51.486;6.332;2023-02-14T09:27:17;21.30;;;10.93;;
75639;SDS011;64233;51.486;6.332;2023-02-14T09:29:42;15.45;;;8.43;;
75639;SDS011;64233;51.486;6.332;2023-02-14T09:32:08;23.85;;;12.48;;
75639;SDS011;64233;51.486;6.332;2023-02-14T09:34:34;22.48;;;11.45;;
75639;SDS011;64233;51.486;6.332;2023-02-14T09:36:59;24.05;;;12.10;;
75639;SDS011;64233;51.486;6.332;2023-02-14T09:39:25;17.65;;;10.05;;
75639;SDS011;64233;51.486;6.332;2023-02-14T09:42:07;24.92;;;12.43;;
75639;SDS011;64233;51.486;6.332;2023-02-14T09:50:00;19.95;;;8.88;;
75639;SDS011;64233;51.486;6.332;2023-02-14T09:52:29;17.95;;;10.52;;
75639;SDS011;64233;51.486;6.332;2023-02-14T09:54:56;22.48;;;10.02;;
75639;SDS011;64233;51.486;6.332;2023-02-14T10:00:19;22.10;;;10.40;;
75639;SDS011;64233;51.486;6.332;2023-02-14T10:11:14;21.33;;;10.90;;
75639;SDS011;64233;51.486;6.332;2023-02-14T10:13:51;25.52;;;11.90;;
75639;SDS011;64233;51.486;6.332;2023-02-14T10:16:27;30.88;;;13.05;;
75639;SDS011;64233;51.486;6.332;2023-02-14T10:21:30;23.60;;;11.73;;
75639;SDS011;64233;51.486;6.332;2023-02-14T10:24:08;26.80;;;12.55;;
75639;SDS011;64233;51.486;6.332;2023-02-14T10:26:40;19.92;;;10.73;;
75639;SDS011;64233;51.486;6.332;2023-02-14T10:29:06;25.40;;;12.18;;
75639;SDS011;64233;51.486;6.332;2023-02-14T10:31:39;19.38;;;10.60;;
75639;SDS011;64233;51.486;6.332;2023-02-14T10:37:02;22.33;;;11.52;;
75639;SDS011;64233;51.486;6.332;2023-02-14T10:50:51;19.73;;;10.95;;
75639;SDS011;64233;51.486;6.332;2023-02-14T10:53:34;23.52;;;11.38;;
75639;SDS011;64233;51.486;6.332;2023-02-14T10:56:28;25.65;;;12.40;;
75639;SDS011;64233;51.486;6.332;2023-02-14T11:01:58;27.48;;;12.25;;
75639;SDS011;64233;51.486;6.332;2023-02-14T11:04:26;19.52;;;10.18;;
75639;SDS011;64233;51.486;6.332;2023-02-14T11:06:53;21.40;;;11.45;;
75639;SDS011;64233;51.486;6.332;2023-02-14T11:09:19;22.98;;;11.60;;
75639;SDS011;64233;51.486;6.332;2023-02-14T11:11:58;24.63;;;12.68;;
75639;SDS011;64233;51.486;6.332;2023-02-14T11:14:25;24.52;;;11.98;;
75639;SDS011;64233;51.486;6.332;2023-02-14T11:16:51;21.73;;;11.32;;
75639;SDS011;64233;51.486;6.332;2023-02-14T11:19:20;17.85;;;10.18;;
75639;SDS011;64233;51.486;6.332;2023-02-14T11:21:51;20.10;;;11.38;;
75639;SDS011;64233;51.486;6.332;2023-02-14T11:26:59;24.95;;;10.88;;
75639;SDS011;64233;51.486;6.332;2023-02-14T11:32:11;25.20;;;12.43;;
75639;SDS011;64233;51.486;6.332;2023-02-14T11:37:33;21.40;;;11.07;;
75639;SDS011;64233;51.486;6.332;2023-02-14T11:40:03;18.30;;;9.05;;
75639;SDS011;64233;51.486;6.332;2023-02-14T11:42:34;18.17;;;9.68;;
75639;SDS011;64233;51.486;6.332;2023-02-14T11:45:04;21.10;;;10.63;;
75639;SDS011;64233;51.486;6.332;2023-02-14T11:47:32;22.50;;;12.57;;
75639;SDS011;64233;51.486;6.332;2023-02-14T11:50:05;21.08;;;12.45;;
75639;SDS011;64233;51.486;6.332;2023-02-14T11:52:47;22.08;;;10.45;;
75639;SDS011;64233;51.486;6.332;2023-02-14T11:55:28;22.20;;;12.77;;
75639;SDS011;64233;51.486;6.332;2023-02-14T11:57:59;25.67;;;11.70;;
75639;SDS011;64233;51.486;6.332;2023-02-14T12:00:27;23.52;;;11.82;;
75639;SDS011;64233;51.486;6.332;2023-02-14T12:02:55;24.30;;;10.82;;
75639;SDS011;64233;51.486;6.332;2023-02-14T12:08:12;26.42;;;11.00;;
75639;SDS011;64233;51.486;6.332;2023-02-14T12:10:39;19.85;;;10.98;;
75639;SDS011;64233;51.486;6.332;2023-02-14T12:21:03;21.95;;;11.95;;
75639;SDS011;64233;51.486;6.332;2023-02-14T12:23:44;21.73;;;11.35;;
75639;SDS011;64233;51.486;6.332;2023-02-14T12:26:34;23.73;;;12.57;;
75639;SDS011;64233;51.486;6.332;2023-02-14T12:29:21;20.73;;;11.20;;
75639;SDS011;64233;51.486;6.332;2023-02-14T12:31:50;23.80;;;12.20;;
75639;SDS011;64233;51.486;6.332;2023-02-14T12:34:17;23.27;;;12.20;;
75639;SDS011;64233;51.486;6.332;2023-02-14T12:36:59;23.35;;;11.93;;
75639;SDS011;64233;51.486;6.332;2023-02-14T12:39:34;25.75;;;12.02;;
75639;SDS011;64233;51.486;6.332;2023-02-14T12:42:21;25.10;;;11.32;;
75639;SDS011;64233;51.486;6.332;2023-02-14T12:47:41;22.40;;;11.43;;
75639;SDS011;64233;51.486;6.332;2023-02-14T12:53:06;18.87;;;10.27;;
75639;SDS011;64233;51.486;6.332;2023-02-14T12:58:21;24.67;;;12.88;;
75639;SDS011;64233;51.486;6.332;2023-02-14T13:03:46;22.67;;;12.05;;
75639;SDS011;64233;51.486;6.332;2023-02-14T13:09:04;22.08;;;12.18;;
75639;SDS011;64233;51.486;6.332;2023-02-14T13:14:12;27.63;;;11.95;;
75639;SDS011;64233;51.486;6.332;2023-02-14T13:22:07;19.67;;;11.88;;
75639;SDS011;64233;51.486;6.332;2023-02-14T13:24:41;21.98;;;12.05;;
75639;SDS011;64233;51.486;6.332;2023-02-14T13:27:20;24.52;;;12.00;;
75639;SDS011;64233;51.486;6.332;2023-02-14T13:29:53;28.25;;;13.18;;
75639;SDS011;64233;51.486;6.332;2023-02-14T13:32:24;28.67;;;13.40;;
75639;SDS011;64233;51.486;6.332;2023-02-14T13:34:53;21.60;;;12.52;;
75639;SDS011;64233;51.486;6.332;2023-02-14T13:37:20;27.35;;;13.80;;
75639;SDS011;64233;51.486;6.332;2023-02-14T13:39:49;21.67;;;12.15;;
75639;SDS011;64233;51.486;6.332;2023-02-14T13:48:03;22.65;;;12.48;;
75639;SDS011;64233;51.486;6.332;2023-02-14T13:50:38;25.73;;;11.38;;
75639;SDS011;64233;51.486;6.332;2023-02-14T13:53:13;28.42;;;12.93;;
75639;SDS011;64233;51.486;6.332;2023-02-14T13:56:03;24.73;;;12.13;;
75639;SDS011;64233;51.486;6.332;2023-02-14T13:58:30;25.33;;;12.57;;
75639;SDS011;64233;51.486;6.332;2023-02-14T14:00:56;27.30;;;13.25;;
75639;SDS011;64233;51.486;6.332;2023-02-14T14:04:04;23.73;;;12.35;;
75639;SDS011;64233;51.486;6.332;2023-02-14T14:06:17;24.27;;;12.63;;
75639;SDS011;64233;51.486;6.332;2023-02-14T14:08:49;24.27;;;11.00;;
75639;SDS011;64233;51.486;6.332;2023-02-14T14:24:33;25.38;;;13.35;;
75639;SDS011;64233;51.486;6.332;2023-02-14T14:29:39;36.75;;;14.02;;
75639;SDS011;64233;51.486;6.332;2023-02-14T14:32:08;25.98;;;12.38;;
75639;SDS011;64233;51.486;6.332;2023-02-14T14:34:50;24.23;;;13.32;;
75639;SDS011;64233;51.486;6.332;2023-02-14T14:37:24;27.20;;;13.40;;
75639;SDS011;64233;51.486;6.332;2023-02-14T14:39:54;28.92;;;14.13;;
75639;SDS011;64233;51.486;6.332;2023-02-14T14:42:21;25.05;;;12.32;;
75639;SDS011;64233;51.486;6.332;2023-02-14T14:44:49;24.90;;;12.32;;
75639;SDS011;64233;51.486;6.332;2023-02-14T14:47:21;23.05;;;13.02;;
75639;SDS011;64233;51.486;6.332;2023-02-14T14:49:48;24.50;;;13.23;;
75639;SDS011;64233;51.486;6.332;2023-02-14T14:52:23;21.45;;;11.95;;
75639;SDS011;64233;51.486;6.332;2023-02-14T14:54:54;26.63;;;14.23;;
75639;SDS011;64233;51.486;6.332;2023-02-14T14:57:20;25.08;;;14.48;;
75639;SDS011;64233;51.486;6.332;2023-02-14T14:59:45;25.55;;;14.45;;
75639;SDS011;64233;51.486;6.332;2023-02-14T15:02:20;25.70;;;14.05;;
75639;SDS011;64233;51.486;6.332;2023-02-14T15:04:47;27.05;;;13.00;;
75639;SDS011;64233;51.486;6.332;2023-02-14T15:07:17;34.45;;;13.70;;
75639;SDS011;64233;51.486;6.332;2023-02-14T15:09:45;24.25;;;13.60;;
75639;SDS011;64233;51.486;6.332;2023-02-14T15:12:10;25.25;;;14.20;;
75639;SDS011;64233;51.486;6.332;2023-02-14T15:14:59;25.00;;;11.50;;
75639;SDS011;64233;51.486;6.332;2023-02-14T15:17:26;22.98;;;12.50;;
75639;SDS011;64233;51.486;6.332;2023-02-14T15:19:56;27.02;;;12.82;;
75639;SDS011;64233;51.486;6.332;2023-02-14T15:22:40;26.50;;;13.95;;
75639;SDS011;64233;51.486;6.332;2023-02-14T15:25:09;28.08;;;13.95;;
75639;SDS011;64233;51.486;6.332;2023-02-14T15:27:38;26.77;;;14.52;;
75639;SDS011;64233;51.486;6.332;2023-02-14T15:30:20;27.10;;;14.15;;
75639;SDS011;64233;51.486;6.332;2023-02-14T15:33:04;26.60;;;13.27;;
75639;SDS011;64233;51.486;6.332;2023-02-14T15:35:32;28.45;;;13.60;;
75639;SDS011;64233;51.486;6.332;2023-02-14T15:38:00;28.58;;;14.70;;
75639;SDS011;64233;51.486;6.332;2023-02-14T15:40:30;30.50;;;15.02;;
75639;SDS011;64233;51.486;6.332;2023-02-14T15:42:57;25.40;;;13.07;;
75639;SDS011;64233;51.486;6.332;2023-02-14T15:45:37;30.27;;;15.70;;
75639;SDS011;64233;51.486;6.332;2023-02-14T15:48:37;27.08;;;14.50;;
75639;SDS011;64233;51.486;6.332;2023-02-14T15:50:57;29.08;;;13.90;;
75639;SDS011;64233;51.486;6.332;2023-02-14T15:56:13;30.00;;;12.77;;
75639;SDS011;64233;51.486;6.332;2023-02-14T15:58:48;31.40;;;13.40;;
75639;SDS011;64233;51.486;6.332;2023-02-14T16:01:22;25.80;;;14.07;;
75639;SDS011;64233;51.486;6.332;2023-02-14T16:03:49;26.40;;;13.60;;
75639;SDS011;64233;51.486;6.332;2023-02-14T16:08:56;24.58;;;13.23;;
75639;SDS011;64233;51.486;6.332;2023-02-14T16:11:30;30.02;;;14.02;;
75639;SDS011;64233;51.486;6.332;2023-02-14T16:14:18;26.50;;;13.77;;
75639;SDS011;64233;51.486;6.332;2023-02-14T16:17:03;25.63;;;13.38;;
75639;SDS011;64233;51.486;6.332;2023-02-14T16:19:34;25.08;;;11.82;;
75639;SDS011;64233;51.486;6.332;2023-02-14T16:22:02;29.77;;;13.68;;
75639;SDS011;64233;51.486;6.332;2023-02-14T16:24:28;29.98;;;14.18;;
75639;SDS011;64233;51.486;6.332;2023-02-14T16:26:53;25.90;;;12.43;;
75639;SDS011;64233;51.486;6.332;2023-02-14T16:29:19;28.35;;;13.88;;
75639;SDS011;64233;51.486;6.332;2023-02-14T16:31:48;25.02;;;12.93;;
75639;SDS011;64233;51.486;6.332;2023-02-14T16:34:23;25.60;;;13.75;;
75639;SDS011;64233;51.486;6.332;2023-02-14T16:36:50;29.77;;;12.50;;
75639;SDS011;64233;51.486;6.332;2023-02-14T16:39:17;22.92;;;12.57;;
75639;SDS011;64233;51.486;6.332;2023-02-14T16:41:47;26.48;;;13.93;;
75639;SDS011;64233;51.486;6.332;2023-02-14T16:44:14;31.08;;;13.93;;
75639;SDS011;64233;51.486;6.332;2023-02-14T16:46:41;26.38;;;13.98;;
75639;SDS011;64233;51.486;6.332;2023-02-14T16:49:07;27.20;;;14.15;;
75639;SDS011;64233;51.486;6.332;2023-02-14T16:51:33;27.02;;;14.23;;
75639;SDS011;64233;51.486;6.332;2023-02-14T16:54:01;27.13;;;14.43;;
75639;SDS011;64233;51.486;6.332;2023-02-14T16:59:04;28.10;;;14.10;;
75639;SDS011;64233;51.486;6.332;2023-02-14T17:01:29;29.92;;;13.93;;
75639;SDS011;64233;51.486;6.332;2023-02-14T17:03:56;30.98;;;14.32;;
75639;SDS011;64233;51.486;6.332;2023-02-14T17:06:22;25.05;;;14.30;;
75639;SDS011;64233;51.486;6.332;2023-02-14T17:08:51;30.63;;;14.13;;
75639;SDS011;64233;51.486;6.332;2023-02-14T17:11:18;34.80;;;15.85;;